sensor_id;sensor_type;location;lat;lon;timestamp;P1;durP1;ratioP1;P2;durP2;ratioP2
59788;SDS011;47353;51.614;5.530;2023-02-26T00:01:31;15.13;;;5.63;;
59788;SDS011;47353;51.614;5.530;2023-02-26T00:03:58;16.87;;;6.47;;
59788;SDS011;47353;51.614;5.530;2023-02-26T00:06:26;14.87;;;6.27;;
59788;SDS011;47353;51.614;5.530;2023-02-26T00:08:53;16.17;;;7.13;;
59788;SDS011;47353;51.614;5.530;2023-02-26T00:11:18;14.13;;;6.47;;
59788;SDS011;47353;51.614;5.530;2023-02-26T00:13:45;17.43;;;6.83;;
59788;SDS011;47353;51.614;5.530;2023-02-26T00:16:18;15.57;;;6.77;;
59788;SDS011;47353;51.614;5.530;2023-02-26T00:18:56;18.57;;;6.33;;
59788;SDS011;47353;51.614;5.530;2023-02-26T00:21:23;14.17;;;5.27;;
59788;SDS011;47353;51.614;5.530;2023-02-26T00:23:50;13.37;;;5.50;;
59788;SDS011;47353;51.614;5.530;2023-02-26T00:26:16;15.23;;;5.63;;
59788;SDS011;47353;51.614;5.530;2023-02-26T00:28:41;12.50;;;5.50;;
59788;SDS011;47353;51.614;5.530;2023-02-26T00:31:07;16.17;;;5.77;;
59788;SDS011;47353;51.614;5.530;2023-02-26T00:33:33;13.60;;;5.20;;
59788;SDS011;47353;51.614;5.530;2023-02-26T00:36:07;11.90;;;5.73;;
59788;SDS011;47353;51.614;5.530;2023-02-26T00:38:54;13.23;;;5.40;;
59788;SDS011;47353;51.614;5.530;2023-02-26T00:41:20;11.43;;;5.47;;
59788;SDS011;47353;51.614;5.530;2023-02-26T00:43:46;12.77;;;5.63;;
59788;SDS011;47353;51.614;5.530;2023-02-26T00:49:02;15.20;;;5.73;;
59788;SDS011;47353;51.614;5.530;2023-02-26T00:54:21;12.53;;;5.80;;
59788;SDS011;47353;51.614;5.530;2023-02-26T00:56:48;12.57;;;5.83;;
59788;SDS011;47353;51.614;5.530;2023-02-26T00:59:15;16.70;;;5.50;;
59788;SDS011;47353;51.614;5.530;2023-02-26T01:01:41;12.30;;;5.27;;
59788;SDS011;47353;51.614;5.530;2023-02-26T01:04:08;11.70;;;6.00;;
59788;SDS011;47353;51.614;5.530;2023-02-26T01:06:34;12.57;;;5.07;;
59788;SDS011;47353;51.614;5.530;2023-02-26T01:09:07;17.27;;;5.63;;
59788;SDS011;47353;51.614;5.530;2023-02-26T01:11:39;13.83;;;5.77;;
59788;SDS011;47353;51.614;5.530;2023-02-26T01:14:05;13.80;;;5.40;;
59788;SDS011;47353;51.614;5.530;2023-02-26T01:16:43;10.33;;;5.13;;
59788;SDS011;47353;51.614;5.530;2023-02-26T01:19:27;14.53;;;5.43;;
59788;SDS011;47353;51.614;5.530;2023-02-26T01:22:02;12.87;;;5.27;;
59788;SDS011;47353;51.614;5.530;2023-02-26T01:24:43;15.97;;;5.40;;
59788;SDS011;47353;51.614;5.530;2023-02-26T01:27:13;13.47;;;5.03;;
59788;SDS011;47353;51.614;5.530;2023-02-26T01:29:39;14.70;;;4.90;;
59788;SDS011;47353;51.614;5.530;2023-02-26T01:34:41;12.43;;;4.53;;
59788;SDS011;47353;51.614;5.530;2023-02-26T01:42:29;10.97;;;4.23;;
59788;SDS011;47353;51.614;5.530;2023-02-26T01:45:02;15.50;;;4.57;;
59788;SDS011;47353;51.614;5.530;2023-02-26T01:47:39;10.77;;;4.33;;
59788;SDS011;47353;51.614;5.530;2023-02-26T01:50:22;7.97;;;3.60;;
59788;SDS011;47353;51.614;5.530;2023-02-26T01:55:25;10.93;;;3.70;;
59788;SDS011;47353;51.614;5.530;2023-02-26T01:57:53;12.90;;;4.00;;
59788;SDS011;47353;51.614;5.530;2023-02-26T02:00:21;9.60;;;3.60;;
59788;SDS011;47353;51.614;5.530;2023-02-26T02:02:46;8.77;;;3.70;;
59788;SDS011;47353;51.614;5.530;2023-02-26T02:05:15;10.30;;;3.30;;
59788;SDS011;47353;51.614;5.530;2023-02-26T02:07:45;13.68;;;3.22;;
59788;SDS011;47353;51.614;5.530;2023-02-26T02:10:11;13.20;;;3.73;;
59788;SDS011;47353;51.614;5.530;2023-02-26T02:12:38;8.60;;;2.80;;
59788;SDS011;47353;51.614;5.530;2023-02-26T02:18:01;9.77;;;3.07;;
59788;SDS011;47353;51.614;5.530;2023-02-26T02:21:27;10.20;;;2.60;;
59788;SDS011;47353;51.614;5.530;2023-02-26T02:26:13;9.30;;;2.70;;
59788;SDS011;47353;51.614;5.530;2023-02-26T02:32:10;11.35;;;2.80;;
59788;SDS011;47353;51.614;5.530;2023-02-26T02:34:52;8.77;;;2.40;;
59788;SDS011;47353;51.614;5.530;2023-02-26T02:37:28;7.90;;;3.03;;
59788;SDS011;47353;51.614;5.530;2023-02-26T02:40:03;11.20;;;2.60;;
59788;SDS011;47353;51.614;5.530;2023-02-26T02:45:25;6.93;;;3.10;;
59788;SDS011;47353;51.614;5.530;2023-02-26T02:48:07;8.23;;;2.67;;
59788;SDS011;47353;51.614;5.530;2023-02-26T02:56:09;6.67;;;2.60;;
59788;SDS011;47353;51.614;5.530;2023-02-26T02:58:38;6.00;;;2.47;;
59788;SDS011;47353;51.614;5.530;2023-02-26T03:01:09;7.47;;;2.73;;
59788;SDS011;47353;51.614;5.530;2023-02-26T03:03:49;10.37;;;2.40;;
59788;SDS011;47353;51.614;5.530;2023-02-26T03:06:19;9.27;;;2.60;;
59788;SDS011;47353;51.614;5.530;2023-02-26T03:08:45;7.27;;;2.23;;
59788;SDS011;47353;51.614;5.530;2023-02-26T03:11:12;10.53;;;2.80;;
59788;SDS011;47353;51.614;5.530;2023-02-26T03:13:38;8.67;;;2.87;;
59788;SDS011;47353;51.614;5.530;2023-02-26T03:23:49;9.33;;;2.77;;
59788;SDS011;47353;51.614;5.530;2023-02-26T03:26:30;8.63;;;2.50;;
59788;SDS011;47353;51.614;5.530;2023-02-26T03:29:04;7.83;;;2.57;;
59788;SDS011;47353;51.614;5.530;2023-02-26T03:31:54;9.07;;;2.53;;
59788;SDS011;47353;51.614;5.530;2023-02-26T03:37:03;8.43;;;2.97;;
59788;SDS011;47353;51.614;5.530;2023-02-26T03:39:36;7.20;;;2.60;;
59788;SDS011;47353;51.614;5.530;2023-02-26T03:42:07;11.90;;;2.80;;
59788;SDS011;47353;51.614;5.530;2023-02-26T03:44:56;7.32;;;2.53;;
59788;SDS011;47353;51.614;5.530;2023-02-26T03:47:25;7.50;;;2.93;;
59788;SDS011;47353;51.614;5.530;2023-02-26T03:52:33;8.80;;;2.60;;
59788;SDS011;47353;51.614;5.530;2023-02-26T03:55:07;8.30;;;2.63;;
59788;SDS011;47353;51.614;5.530;2023-02-26T03:57:34;9.70;;;2.93;;
59788;SDS011;47353;51.614;5.530;2023-02-26T03:59:59;8.33;;;2.43;;
59788;SDS011;47353;51.614;5.530;2023-02-26T04:05:09;5.17;;;2.13;;
59788;SDS011;47353;51.614;5.530;2023-02-26T04:07:39;7.10;;;2.33;;
59788;SDS011;47353;51.614;5.530;2023-02-26T04:10:04;6.90;;;2.23;;
59788;SDS011;47353;51.614;5.530;2023-02-26T04:12:32;8.53;;;2.37;;
59788;SDS011;47353;51.614;5.530;2023-02-26T04:14:58;9.73;;;2.63;;
59788;SDS011;47353;51.614;5.530;2023-02-26T04:17:23;6.10;;;2.30;;
59788;SDS011;47353;51.614;5.530;2023-02-26T04:19:49;5.50;;;2.40;;
59788;SDS011;47353;51.614;5.530;2023-02-26T04:22:14;6.03;;;2.07;;
59788;SDS011;47353;51.614;5.530;2023-02-26T04:24:40;10.13;;;2.20;;
59788;SDS011;47353;51.614;5.530;2023-02-26T04:27:06;7.17;;;2.10;;
59788;SDS011;47353;51.614;5.530;2023-02-26T04:29:31;6.50;;;2.10;;
59788;SDS011;47353;51.614;5.530;2023-02-26T04:31:56;5.13;;;2.10;;
59788;SDS011;47353;51.614;5.530;2023-02-26T04:34:22;9.47;;;2.23;;
59788;SDS011;47353;51.614;5.530;2023-02-26T04:36:47;7.50;;;1.93;;
59788;SDS011;47353;51.614;5.530;2023-02-26T04:39:13;6.53;;;1.90;;
59788;SDS011;47353;51.614;5.530;2023-02-26T04:41:38;8.33;;;1.80;;
59788;SDS011;47353;51.614;5.530;2023-02-26T04:44:04;7.03;;;1.63;;
59788;SDS011;47353;51.614;5.530;2023-02-26T04:46:30;7.40;;;1.93;;
59788;SDS011;47353;51.614;5.530;2023-02-26T04:48:56;8.30;;;2.20;;
59788;SDS011;47353;51.614;5.530;2023-02-26T04:51:21;6.53;;;2.00;;
59788;SDS011;47353;51.614;5.530;2023-02-26T04:53:47;6.97;;;1.93;;
59788;SDS011;47353;51.614;5.530;2023-02-26T04:56:12;3.80;;;1.67;;
59788;SDS011;47353;51.614;5.530;2023-02-26T04:58:38;7.17;;;1.83;;
59788;SDS011;47353;51.614;5.530;2023-02-26T05:01:04;9.60;;;1.80;;
59788;SDS011;47353;51.614;5.530;2023-02-26T05:03:29;5.77;;;1.60;;
59788;SDS011;47353;51.614;5.530;2023-02-26T05:05:55;4.37;;;1.50;;
59788;SDS011;47353;51.614;5.530;2023-02-26T05:08:20;8.13;;;1.70;;
59788;SDS011;47353;51.614;5.530;2023-02-26T05:10:46;6.83;;;2.00;;
59788;SDS011;47353;51.614;5.530;2023-02-26T05:13:11;9.00;;;1.80;;
59788;SDS011;47353;51.614;5.530;2023-02-26T05:15:36;6.17;;;1.77;;
59788;SDS011;47353;51.614;5.530;2023-02-26T05:18:02;6.87;;;1.67;;
59788;SDS011;47353;51.614;5.530;2023-02-26T05:20:28;6.83;;;1.57;;
59788;SDS011;47353;51.614;5.530;2023-02-26T05:22:53;5.60;;;1.83;;
59788;SDS011;47353;51.614;5.530;2023-02-26T05:25:19;7.37;;;1.70;;
59788;SDS011;47353;51.614;5.530;2023-02-26T05:27:44;7.67;;;1.77;;
59788;SDS011;47353;51.614;5.530;2023-02-26T05:30:10;8.13;;;1.57;;
59788;SDS011;47353;51.614;5.530;2023-02-26T05:32:38;8.10;;;2.07;;
59788;SDS011;47353;51.614;5.530;2023-02-26T05:35:04;7.63;;;1.60;;
59788;SDS011;47353;51.614;5.530;2023-02-26T05:37:29;5.07;;;1.50;;
59788;SDS011;47353;51.614;5.530;2023-02-26T05:39:55;8.70;;;1.43;;
59788;SDS011;47353;51.614;5.530;2023-02-26T05:42:20;6.43;;;1.50;;
59788;SDS011;47353;51.614;5.530;2023-02-26T05:44:46;8.17;;;1.90;;
59788;SDS011;47353;51.614;5.530;2023-02-26T05:47:11;6.60;;;1.43;;
59788;SDS011;47353;51.614;5.530;2023-02-26T05:49:36;11.43;;;2.20;;
59788;SDS011;47353;51.614;5.530;2023-02-26T05:52:02;6.03;;;1.40;;
59788;SDS011;47353;51.614;5.530;2023-02-26T05:54:28;7.30;;;1.63;;
59788;SDS011;47353;51.614;5.530;2023-02-26T05:56:54;4.20;;;1.33;;
59788;SDS011;47353;51.614;5.530;2023-02-26T05:59:20;6.77;;;1.70;;
59788;SDS011;47353;51.614;5.530;2023-02-26T06:01:45;5.60;;;1.57;;
59788;SDS011;47353;51.614;5.530;2023-02-26T06:04:11;4.17;;;1.40;;
59788;SDS011;47353;51.614;5.530;2023-02-26T06:06:36;6.47;;;1.60;;
59788;SDS011;47353;51.614;5.530;2023-02-26T06:09:02;6.83;;;1.50;;
59788;SDS011;47353;51.614;5.530;2023-02-26T06:11:28;5.80;;;1.57;;
59788;SDS011;47353;51.614;5.530;2023-02-26T06:13:54;4.87;;;1.50;;
59788;SDS011;47353;51.614;5.530;2023-02-26T06:16:20;5.47;;;1.40;;
59788;SDS011;47353;51.614;5.530;2023-02-26T06:18:46;4.83;;;1.10;;
59788;SDS011;47353;51.614;5.530;2023-02-26T06:21:12;4.33;;;1.30;;
59788;SDS011;47353;51.614;5.530;2023-02-26T06:23:37;6.47;;;1.40;;
59788;SDS011;47353;51.614;5.530;2023-02-26T06:26:03;6.60;;;1.40;;
59788;SDS011;47353;51.614;5.530;2023-02-26T06:28:29;6.10;;;1.40;;
59788;SDS011;47353;51.614;5.530;2023-02-26T06:30:54;6.97;;;1.50;;
59788;SDS011;47353;51.614;5.530;2023-02-26T06:33:20;7.30;;;1.40;;
59788;SDS011;47353;51.614;5.530;2023-02-26T06:35:46;4.27;;;1.50;;
59788;SDS011;47353;51.614;5.530;2023-02-26T06:38:12;9.63;;;2.07;;
59788;SDS011;47353;51.614;5.530;2023-02-26T06:40:37;7.87;;;1.50;;
59788;SDS011;47353;51.614;5.530;2023-02-26T06:43:03;4.27;;;1.40;;
59788;SDS011;47353;51.614;5.530;2023-02-26T06:45:28;4.40;;;1.13;;
59788;SDS011;47353;51.614;5.530;2023-02-26T06:47:54;5.03;;;1.40;;
59788;SDS011;47353;51.614;5.530;2023-02-26T06:50:19;5.07;;;1.40;;
59788;SDS011;47353;51.614;5.530;2023-02-26T06:52:45;6.37;;;1.50;;
59788;SDS011;47353;51.614;5.530;2023-02-26T06:55:10;8.17;;;1.40;;
59788;SDS011;47353;51.614;5.530;2023-02-26T06:57:36;5.90;;;1.30;;
59788;SDS011;47353;51.614;5.530;2023-02-26T07:00:02;4.53;;;1.30;;
59788;SDS011;47353;51.614;5.530;2023-02-26T07:02:29;4.00;;;1.17;;
59788;SDS011;47353;51.614;5.530;2023-02-26T07:04:55;5.50;;;1.20;;
59788;SDS011;47353;51.614;5.530;2023-02-26T07:07:20;5.47;;;1.30;;
59788;SDS011;47353;51.614;5.530;2023-02-26T07:09:45;4.07;;;1.23;;
59788;SDS011;47353;51.614;5.530;2023-02-26T07:12:11;4.90;;;1.20;;
59788;SDS011;47353;51.614;5.530;2023-02-26T07:14:36;4.17;;;1.20;;
59788;SDS011;47353;51.614;5.530;2023-02-26T07:17:02;7.60;;;2.00;;
59788;SDS011;47353;51.614;5.530;2023-02-26T07:19:27;3.00;;;1.40;;
59788;SDS011;47353;51.614;5.530;2023-02-26T07:21:53;6.70;;;1.70;;
59788;SDS011;47353;51.614;5.530;2023-02-26T07:24:19;6.73;;;1.50;;
59788;SDS011;47353;51.614;5.530;2023-02-26T07:26:45;4.07;;;1.57;;
59788;SDS011;47353;51.614;5.530;2023-02-26T07:29:10;6.53;;;1.50;;
59788;SDS011;47353;51.614;5.530;2023-02-26T07:31:36;3.80;;;1.77;;
59788;SDS011;47353;51.614;5.530;2023-02-26T07:34:01;5.07;;;1.53;;
59788;SDS011;47353;51.614;5.530;2023-02-26T07:36:27;5.33;;;1.43;;
59788;SDS011;47353;51.614;5.530;2023-02-26T07:38:53;5.80;;;1.50;;
59788;SDS011;47353;51.614;5.530;2023-02-26T07:41:18;9.10;;;1.33;;
59788;SDS011;47353;51.614;5.530;2023-02-26T07:43:43;5.23;;;1.30;;
59788;SDS011;47353;51.614;5.530;2023-02-26T07:46:09;5.43;;;1.30;;
59788;SDS011;47353;51.614;5.530;2023-02-26T07:48:34;6.82;;;1.60;;
59788;SDS011;47353;51.614;5.530;2023-02-26T07:51:01;6.05;;;1.33;;
59788;SDS011;47353;51.614;5.530;2023-02-26T07:53:26;5.78;;;1.15;;
59788;SDS011;47353;51.614;5.530;2023-02-26T07:55:52;4.05;;;1.27;;
59788;SDS011;47353;51.614;5.530;2023-02-26T07:58:17;4.63;;;1.45;;
59788;SDS011;47353;51.614;5.530;2023-02-26T08:00:43;4.88;;;1.40;;
59788;SDS011;47353;51.614;5.530;2023-02-26T08:03:09;6.22;;;1.42;;
59788;SDS011;47353;51.614;5.530;2023-02-26T08:05:34;5.22;;;1.40;;
59788;SDS011;47353;51.614;5.530;2023-02-26T08:08:00;4.28;;;1.00;;
59788;SDS011;47353;51.614;5.530;2023-02-26T08:10:26;5.82;;;1.20;;
59788;SDS011;47353;51.614;5.530;2023-02-26T08:12:51;6.03;;;1.30;;
59788;SDS011;47353;51.614;5.530;2023-02-26T08:15:17;4.45;;;1.38;;
59788;SDS011;47353;51.614;5.530;2023-02-26T08:17:43;2.88;;;1.20;;
59788;SDS011;47353;51.614;5.530;2023-02-26T08:20:08;3.13;;;1.27;;
59788;SDS011;47353;51.614;5.530;2023-02-26T08:22:34;4.68;;;1.10;;
59788;SDS011;47353;51.614;5.530;2023-02-26T08:25:00;4.88;;;1.15;;
59788;SDS011;47353;51.614;5.530;2023-02-26T08:27:25;3.70;;;1.00;;
59788;SDS011;47353;51.614;5.530;2023-02-26T08:29:51;4.07;;;1.00;;
59788;SDS011;47353;51.614;5.530;2023-02-26T08:32:17;9.07;;;1.52;;
59788;SDS011;47353;51.614;5.530;2023-02-26T08:34:44;3.45;;;1.33;;
59788;SDS011;47353;51.614;5.530;2023-02-26T08:37:10;4.18;;;1.10;;
59788;SDS011;47353;51.614;5.530;2023-02-26T08:39:37;5.50;;;1.20;;
59788;SDS011;47353;51.614;5.530;2023-02-26T08:42:06;4.05;;;1.15;;
59788;SDS011;47353;51.614;5.530;2023-02-26T08:44:32;4.35;;;1.15;;
59788;SDS011;47353;51.614;5.530;2023-02-26T08:46:58;3.28;;;1.05;;
59788;SDS011;47353;51.614;5.530;2023-02-26T08:49:23;5.97;;;1.10;;
59788;SDS011;47353;51.614;5.530;2023-02-26T08:51:49;4.55;;;1.13;;
59788;SDS011;47353;51.614;5.530;2023-02-26T08:54:14;3.78;;;0.93;;
59788;SDS011;47353;51.614;5.530;2023-02-26T08:56:40;3.60;;;1.23;;
59788;SDS011;47353;51.614;5.530;2023-02-26T08:59:05;3.97;;;1.00;;
59788;SDS011;47353;51.614;5.530;2023-02-26T09:01:31;4.85;;;0.95;;
59788;SDS011;47353;51.614;5.530;2023-02-26T09:03:56;3.45;;;1.35;;
59788;SDS011;47353;51.614;5.530;2023-02-26T09:06:21;3.28;;;0.90;;
59788;SDS011;47353;51.614;5.530;2023-02-26T09:08:47;3.17;;;1.10;;
59788;SDS011;47353;51.614;5.530;2023-02-26T09:11:13;2.40;;;0.90;;
59788;SDS011;47353;51.614;5.530;2023-02-26T09:13:39;2.10;;;0.95;;
59788;SDS011;47353;51.614;5.530;2023-02-26T09:16:04;3.17;;;0.80;;
59788;SDS011;47353;51.614;5.530;2023-02-26T09:18:30;2.08;;;0.80;;
59788;SDS011;47353;51.614;5.530;2023-02-26T09:20:56;4.03;;;0.73;;
59788;SDS011;47353;51.614;5.530;2023-02-26T09:23:21;2.60;;;0.70;;
59788;SDS011;47353;51.614;5.530;2023-02-26T09:25:51;2.80;;;0.70;;
59788;SDS011;47353;51.614;5.530;2023-02-26T09:28:20;3.25;;;0.85;;
59788;SDS011;47353;51.614;5.530;2023-02-26T09:30:46;7.20;;;1.13;;
59788;SDS011;47353;51.614;5.530;2023-02-26T09:33:12;2.13;;;0.70;;
59788;SDS011;47353;51.614;5.530;2023-02-26T09:35:37;3.10;;;0.95;;
59788;SDS011;47353;51.614;5.530;2023-02-26T09:38:03;2.25;;;0.70;;
59788;SDS011;47353;51.614;5.530;2023-02-26T09:43:06;1.75;;;0.80;;
59788;SDS011;47353;51.614;5.530;2023-02-26T09:46:00;3.47;;;0.90;;
59788;SDS011;47353;51.614;5.530;2023-02-26T09:48:30;3.55;;;0.90;;
59788;SDS011;47353;51.614;5.530;2023-02-26T09:50:59;2.67;;;0.90;;
59788;SDS011;47353;51.614;5.530;2023-02-26T09:53:26;3.70;;;1.00;;
59788;SDS011;47353;51.614;5.530;2023-02-26T09:55:54;1.92;;;0.80;;
59788;SDS011;47353;51.614;5.530;2023-02-26T09:58:25;4.05;;;0.80;;
59788;SDS011;47353;51.614;5.530;2023-02-26T10:00:59;1.80;;;0.70;;
59788;SDS011;47353;51.614;5.530;2023-02-26T10:06:31;2.90;;;0.77;;
59788;SDS011;47353;51.614;5.530;2023-02-26T10:14:33;4.82;;;0.90;;
59788;SDS011;47353;51.614;5.530;2023-02-26T10:20:00;4.97;;;0.70;;
59788;SDS011;47353;51.614;5.530;2023-02-26T10:22:36;2.25;;;0.70;;
59788;SDS011;47353;51.614;5.530;2023-02-26T10:25:13;1.95;;;0.80;;
59788;SDS011;47353;51.614;5.530;2023-02-26T10:27:54;3.47;;;0.75;;
59788;SDS011;47353;51.614;5.530;2023-02-26T10:30:42;3.40;;;0.82;;
59788;SDS011;47353;51.614;5.530;2023-02-26T10:33:20;2.17;;;0.60;;
59788;SDS011;47353;51.614;5.530;2023-02-26T10:35:52;1.88;;;0.68;;
59788;SDS011;47353;51.614;5.530;2023-02-26T10:38:23;3.17;;;0.60;;
59788;SDS011;47353;51.614;5.530;2023-02-26T10:40:54;2.28;;;0.75;;
59788;SDS011;47353;51.614;5.530;2023-02-26T10:43:34;2.67;;;0.70;;
59788;SDS011;47353;51.614;5.530;2023-02-26T10:52:04;3.38;;;0.70;;
59788;SDS011;47353;51.614;5.530;2023-02-26T10:54:38;2.10;;;0.70;;
59788;SDS011;47353;51.614;5.530;2023-02-26T10:57:25;3.85;;;0.77;;
59788;SDS011;47353;51.614;5.530;2023-02-26T10:59:57;1.98;;;0.60;;
59788;SDS011;47353;51.614;5.530;2023-02-26T11:02:30;1.15;;;0.73;;
59788;SDS011;47353;51.614;5.530;2023-02-26T11:04:59;2.33;;;0.73;;
59788;SDS011;47353;51.614;5.530;2023-02-26T11:07:26;2.20;;;0.70;;
59788;SDS011;47353;51.614;5.530;2023-02-26T11:09:54;2.13;;;0.60;;
59788;SDS011;47353;51.614;5.530;2023-02-26T11:12:19;1.80;;;0.60;;
59788;SDS011;47353;51.614;5.530;2023-02-26T11:14:48;2.72;;;0.70;;
59788;SDS011;47353;51.614;5.530;2023-02-26T11:17:24;2.15;;;0.60;;
59788;SDS011;47353;51.614;5.530;2023-02-26T11:22:42;1.55;;;0.65;;
59788;SDS011;47353;51.614;5.530;2023-02-26T11:25:16;2.05;;;0.60;;
59788;SDS011;47353;51.614;5.530;2023-02-26T11:27:44;1.10;;;0.50;;
59788;SDS011;47353;51.614;5.530;2023-02-26T11:30:16;2.72;;;0.60;;
59788;SDS011;47353;51.614;5.530;2023-02-26T11:32:44;1.98;;;0.70;;
59788;SDS011;47353;51.614;5.530;2023-02-26T11:35:14;0.85;;;0.45;;
59788;SDS011;47353;51.614;5.530;2023-02-26T11:37:41;1.92;;;0.68;;
59788;SDS011;47353;51.614;5.530;2023-02-26T11:40:21;1.63;;;0.60;;
59788;SDS011;47353;51.614;5.530;2023-02-26T11:42:55;2.67;;;0.60;;
59788;SDS011;47353;51.614;5.530;2023-02-26T11:45:23;2.42;;;0.70;;
59788;SDS011;47353;51.614;5.530;2023-02-26T11:47:51;1.92;;;0.68;;
59788;SDS011;47353;51.614;5.530;2023-02-26T11:50:24;4.32;;;0.60;;
59788;SDS011;47353;51.614;5.530;2023-02-26T11:52:54;2.13;;;0.70;;
59788;SDS011;47353;51.614;5.530;2023-02-26T11:55:29;2.35;;;1.00;;
59788;SDS011;47353;51.614;5.530;2023-02-26T11:57:57;2.13;;;0.65;;
59788;SDS011;47353;51.614;5.530;2023-02-26T12:00:30;2.30;;;0.90;;
59788;SDS011;47353;51.614;5.530;2023-02-26T12:03:00;2.20;;;0.70;;
59788;SDS011;47353;51.614;5.530;2023-02-26T12:05:28;1.55;;;0.60;;
59788;SDS011;47353;51.614;5.530;2023-02-26T12:07:55;1.73;;;0.68;;
59788;SDS011;47353;51.614;5.530;2023-02-26T12:10:23;2.80;;;0.80;;
59788;SDS011;47353;51.614;5.530;2023-02-26T12:15:33;1.40;;;0.70;;
59788;SDS011;47353;51.614;5.530;2023-02-26T12:26:34;2.92;;;0.60;;
59788;SDS011;47353;51.614;5.530;2023-02-26T12:29:15;1.40;;;0.80;;
59788;SDS011;47353;51.614;5.530;2023-02-26T12:40:07;1.25;;;0.80;;
59788;SDS011;47353;51.614;5.530;2023-02-26T12:45:41;2.20;;;0.70;;
59788;SDS011;47353;51.614;5.530;2023-02-26T12:48:27;2.22;;;0.88;;
59788;SDS011;47353;51.614;5.530;2023-02-26T12:54:19;3.45;;;0.90;;
59788;SDS011;47353;51.614;5.530;2023-02-26T13:02:28;1.75;;;0.70;;
59788;SDS011;47353;51.614;5.530;2023-02-26T13:13:27;1.92;;;0.80;;
59788;SDS011;47353;51.614;5.530;2023-02-26T13:21:20;1.75;;;0.90;;
59788;SDS011;47353;51.614;5.530;2023-02-26T13:23:59;2.33;;;0.85;;
59788;SDS011;47353;51.614;5.530;2023-02-26T13:26:29;2.53;;;0.70;;
59788;SDS011;47353;51.614;5.530;2023-02-26T13:29:04;1.75;;;0.90;;
59788;SDS011;47353;51.614;5.530;2023-02-26T13:31:55;1.83;;;0.80;;
59788;SDS011;47353;51.614;5.530;2023-02-26T13:34:28;4.03;;;1.00;;
59788;SDS011;47353;51.614;5.530;2023-02-26T13:47:48;1.83;;;0.95;;
59788;SDS011;47353;51.614;5.530;2023-02-26T13:50:20;2.00;;;1.17;;
59788;SDS011;47353;51.614;5.530;2023-02-26T13:52:56;1.70;;;0.82;;
59788;SDS011;47353;51.614;5.530;2023-02-26T13:55:39;3.47;;;1.00;;
59788;SDS011;47353;51.614;5.530;2023-02-26T14:24:55;3.67;;;1.05;;
59788;SDS011;47353;51.614;5.530;2023-02-26T14:30:45;1.40;;;0.70;;
59788;SDS011;47353;51.614;5.530;2023-02-26T14:35:51;2.58;;;0.80;;
59788;SDS011;47353;51.614;5.530;2023-02-26T14:38:22;2.25;;;0.70;;
59788;SDS011;47353;51.614;5.530;2023-02-26T14:41:34;1.95;;;0.70;;
59788;SDS011;47353;51.614;5.530;2023-02-26T14:43:49;1.45;;;0.60;;
59788;SDS011;47353;51.614;5.530;2023-02-26T14:46:30;3.38;;;1.00;;
59788;SDS011;47353;51.614;5.530;2023-02-26T14:48:59;2.03;;;0.77;;
59788;SDS011;47353;51.614;5.530;2023-02-26T14:59:48;2.00;;;1.20;;
59788;SDS011;47353;51.614;5.530;2023-02-26T15:10:21;1.60;;;0.70;;
59788;SDS011;47353;51.614;5.530;2023-02-26T15:15:36;1.20;;;0.80;;
59788;SDS011;47353;51.614;5.530;2023-02-26T15:18:26;2.08;;;0.85;;
59788;SDS011;47353;51.614;5.530;2023-02-26T15:24:17;2.53;;;1.00;;
59788;SDS011;47353;51.614;5.530;2023-02-26T15:26:48;2.58;;;1.00;;
59788;SDS011;47353;51.614;5.530;2023-02-26T15:29:15;1.85;;;0.80;;
59788;SDS011;47353;51.614;5.530;2023-02-26T15:31:43;1.92;;;0.70;;
59788;SDS011;47353;51.614;5.530;2023-02-26T15:34:18;2.45;;;0.93;;
59788;SDS011;47353;51.614;5.530;2023-02-26T15:36:44;2.03;;;0.90;;
59788;SDS011;47353;51.614;5.530;2023-02-26T15:39:12;2.13;;;0.82;;
59788;SDS011;47353;51.614;5.530;2023-02-26T15:41:40;2.10;;;0.90;;
59788;SDS011;47353;51.614;5.530;2023-02-26T15:44:07;1.70;;;0.80;;
59788;SDS011;47353;51.614;5.530;2023-02-26T15:46:38;2.33;;;1.10;;
59788;SDS011;47353;51.614;5.530;2023-02-26T15:49:07;3.42;;;1.00;;
59788;SDS011;47353;51.614;5.530;2023-02-26T15:51:37;2.55;;;0.90;;
59788;SDS011;47353;51.614;5.530;2023-02-26T15:54:04;2.97;;;1.00;;
59788;SDS011;47353;51.614;5.530;2023-02-26T15:56:34;1.92;;;0.80;;
59788;SDS011;47353;51.614;5.530;2023-02-26T15:59:05;2.00;;;0.90;;
59788;SDS011;47353;51.614;5.530;2023-02-26T16:01:35;2.45;;;1.00;;
59788;SDS011;47353;51.614;5.530;2023-02-26T16:04:02;5.70;;;1.45;;
59788;SDS011;47353;51.614;5.530;2023-02-26T16:06:31;2.75;;;1.33;;
59788;SDS011;47353;51.614;5.530;2023-02-26T16:08:59;2.67;;;1.17;;
59788;SDS011;47353;51.614;5.530;2023-02-26T16:14:30;2.72;;;1.27;;
59788;SDS011;47353;51.614;5.530;2023-02-26T16:16:59;2.88;;;0.98;;
59788;SDS011;47353;51.614;5.530;2023-02-26T16:19:36;2.40;;;1.08;;
59788;SDS011;47353;51.614;5.530;2023-02-26T16:25:04;3.00;;;1.20;;
59788;SDS011;47353;51.614;5.530;2023-02-26T16:27:51;2.83;;;1.25;;
59788;SDS011;47353;51.614;5.530;2023-02-26T16:30:26;2.45;;;1.08;;
59788;SDS011;47353;51.614;5.530;2023-02-26T16:32:56;4.38;;;1.58;;
59788;SDS011;47353;51.614;5.530;2023-02-26T16:35:26;2.65;;;1.48;;
59788;SDS011;47353;51.614;5.530;2023-02-26T16:37:55;3.60;;;1.30;;
59788;SDS011;47353;51.614;5.530;2023-02-26T16:40:25;4.18;;;1.42;;
59788;SDS011;47353;51.614;5.530;2023-02-26T16:42:54;5.85;;;1.73;;
59788;SDS011;47353;51.614;5.530;2023-02-26T16:48:00;2.67;;;1.38;;
59788;SDS011;47353;51.614;5.530;2023-02-26T16:50:31;2.10;;;1.20;;
59788;SDS011;47353;51.614;5.530;2023-02-26T16:53:01;2.10;;;1.30;;
59788;SDS011;47353;51.614;5.530;2023-02-26T16:55:30;3.17;;;1.15;;
59788;SDS011;47353;51.614;5.530;2023-02-26T16:57:58;2.90;;;1.25;;
59788;SDS011;47353;51.614;5.530;2023-02-26T17:00:27;4.22;;;2.08;;
59788;SDS011;47353;51.614;5.530;2023-02-26T17:03:06;3.92;;;1.90;;
59788;SDS011;47353;51.614;5.530;2023-02-26T17:05:36;3.78;;;1.75;;
59788;SDS011;47353;51.614;5.530;2023-02-26T17:10:41;4.43;;;1.90;;
59788;SDS011;47353;51.614;5.530;2023-02-26T17:15:53;2.75;;;1.48;;
59788;SDS011;47353;51.614;5.530;2023-02-26T17:18:33;3.97;;;1.55;;
59788;SDS011;47353;51.614;5.530;2023-02-26T17:20:59;3.42;;;1.30;;
59788;SDS011;47353;51.614;5.530;2023-02-26T17:23:30;4.60;;;2.13;;
59788;SDS011;47353;51.614;5.530;2023-02-26T17:25:57;2.85;;;1.60;;
59788;SDS011;47353;51.614;5.530;2023-02-26T17:28:26;2.85;;;1.60;;
59788;SDS011;47353;51.614;5.530;2023-02-26T17:30:55;4.03;;;1.80;;
59788;SDS011;47353;51.614;5.530;2023-02-26T17:33:21;5.05;;;2.03;;
59788;SDS011;47353;51.614;5.530;2023-02-26T17:35:47;4.50;;;1.98;;
59788;SDS011;47353;51.614;5.530;2023-02-26T17:38:14;3.28;;;1.70;;
59788;SDS011;47353;51.614;5.530;2023-02-26T17:40:44;3.60;;;2.05;;
59788;SDS011;47353;51.614;5.530;2023-02-26T17:43:11;4.38;;;1.95;;
59788;SDS011;47353;51.614;5.530;2023-02-26T17:45:38;4.85;;;1.75;;
59788;SDS011;47353;51.614;5.530;2023-02-26T17:48:04;2.63;;;1.50;;
59788;SDS011;47353;51.614;5.530;2023-02-26T17:53:15;3.75;;;1.45;;
59788;SDS011;47353;51.614;5.530;2023-02-26T17:55:43;4.03;;;1.75;;
59788;SDS011;47353;51.614;5.530;2023-02-26T17:58:32;4.40;;;1.85;;
59788;SDS011;47353;51.614;5.530;2023-02-26T18:00:58;5.00;;;2.17;;
59788;SDS011;47353;51.614;5.530;2023-02-26T18:03:24;5.05;;;1.70;;
59788;SDS011;47353;51.614;5.530;2023-02-26T18:05:50;5.82;;;1.85;;
59788;SDS011;47353;51.614;5.530;2023-02-26T18:08:22;7.18;;;2.40;;
59788;SDS011;47353;51.614;5.530;2023-02-26T18:10:49;4.68;;;2.20;;
59788;SDS011;47353;51.614;5.530;2023-02-26T18:13:16;3.45;;;2.00;;
59788;SDS011;47353;51.614;5.530;2023-02-26T18:15:41;3.72;;;1.40;;
59788;SDS011;47353;51.614;5.530;2023-02-26T18:18:10;4.72;;;1.63;;